Terminal Aerodrome Forecast
Issued by NWS

Home | Current Version | Previous Version | Text Only | Print | Product List | Glossary On
Versions: 1 2 3 4 5 6 7 8 9 10 11 12 13 14 15 16 17 18
000
FTUS45 KRIW 250100 AAA
TAFBPI
TAF AMD
KBPI 250137Z 2502/2524 30007KT P6SM -SHRA VCTS SCT050CB BKN100
      TEMPO 2502/2504 VRB20G35KT -TSRA BKN050CB
     FM250400 VRB06KT P6SM VCSH BKN100
     FM250900 VRB04KT P6SM BKN100
     FM252100 26010KT P6SM BKN060=

USA.gov is the U.S. government's official web portal to all federal, state and local government web resources and services.